sensor_id;sensor_type;location;lat;lon;timestamp;P1;durP1;ratioP1;P2;durP2;ratioP2
79570;SDS011;69034;49.444;7.758;2023-11-21T00:03:26;1.40;;;0.50;;
79570;SDS011;69034;49.444;7.758;2023-11-21T00:07:28;1.77;;;0.60;;
79570;SDS011;69034;49.444;7.758;2023-11-21T00:11:28;0.77;;;0.40;;
79570;SDS011;69034;49.444;7.758;2023-11-21T00:15:29;2.13;;;0.77;;
79570;SDS011;69034;49.444;7.758;2023-11-21T00:19:31;1.33;;;0.45;;
79570;SDS011;69034;49.444;7.758;2023-11-21T00:23:34;3.50;;;0.65;;
79570;SDS011;69034;49.444;7.758;2023-11-21T00:27:35;3.00;;;0.73;;
79570;SDS011;69034;49.444;7.758;2023-11-21T00:31:37;1.08;;;0.47;;
79570;SDS011;69034;49.444;7.758;2023-11-21T00:35:38;3.42;;;0.52;;
79570;SDS011;69034;49.444;7.758;2023-11-21T00:39:39;3.00;;;0.80;;
79570;SDS011;69034;49.444;7.758;2023-11-21T00:43:40;1.70;;;0.60;;
79570;SDS011;69034;49.444;7.758;2023-11-21T00:47:41;1.73;;;0.50;;
79570;SDS011;69034;49.444;7.758;2023-11-21T00:51:42;1.08;;;0.50;;
79570;SDS011;69034;49.444;7.758;2023-11-21T00:55:43;1.98;;;0.70;;
79570;SDS011;69034;49.444;7.758;2023-11-21T00:59:43;1.08;;;0.45;;
79570;SDS011;69034;49.444;7.758;2023-11-21T01:03:47;1.48;;;0.50;;
79570;SDS011;69034;49.444;7.758;2023-11-21T01:07:48;1.60;;;0.50;;
79570;SDS011;69034;49.444;7.758;2023-11-21T01:11:49;2.55;;;0.40;;
79570;SDS011;69034;49.444;7.758;2023-11-21T01:15:49;1.02;;;0.40;;
79570;SDS011;69034;49.444;7.758;2023-11-21T01:19:50;1.50;;;0.40;;
79570;SDS011;69034;49.444;7.758;2023-11-21T01:23:51;1.27;;;0.50;;
79570;SDS011;69034;49.444;7.758;2023-11-21T01:27:51;0.75;;;0.43;;
79570;SDS011;69034;49.444;7.758;2023-11-21T01:31:52;1.65;;;0.57;;
79570;SDS011;69034;49.444;7.758;2023-11-21T01:35:53;3.63;;;0.50;;
79570;SDS011;69034;49.444;7.758;2023-11-21T01:39:55;1.02;;;0.43;;
79570;SDS011;69034;49.444;7.758;2023-11-21T01:43:56;2.15;;;0.47;;
79570;SDS011;69034;49.444;7.758;2023-11-21T01:47:57;1.73;;;0.60;;
79570;SDS011;69034;49.444;7.758;2023-11-21T01:52:00;2.20;;;0.82;;
79570;SDS011;69034;49.444;7.758;2023-11-21T01:56:02;2.05;;;0.68;;
79570;SDS011;69034;49.444;7.758;2023-11-21T02:00:07;3.05;;;0.60;;
79570;SDS011;69034;49.444;7.758;2023-11-21T02:04:19;3.08;;;0.88;;
79570;SDS011;69034;49.444;7.758;2023-11-21T02:08:21;1.17;;;0.50;;
79570;SDS011;69034;49.444;7.758;2023-11-21T02:12:21;2.25;;;0.75;;
79570;SDS011;69034;49.444;7.758;2023-11-21T02:16:22;1.25;;;0.40;;
79570;SDS011;69034;49.444;7.758;2023-11-21T02:20:23;2.28;;;0.65;;
79570;SDS011;69034;49.444;7.758;2023-11-21T02:24:24;1.50;;;0.50;;
79570;SDS011;69034;49.444;7.758;2023-11-21T02:28:25;1.52;;;0.50;;
79570;SDS011;69034;49.444;7.758;2023-11-21T02:32:26;1.65;;;0.63;;
79570;SDS011;69034;49.444;7.758;2023-11-21T02:36:26;2.55;;;1.00;;
79570;SDS011;69034;49.444;7.758;2023-11-21T02:40:27;1.70;;;0.75;;
79570;SDS011;69034;49.444;7.758;2023-11-21T02:44:29;1.85;;;0.55;;
79570;SDS011;69034;49.444;7.758;2023-11-21T02:48:29;0.60;;;0.38;;
79570;SDS011;69034;49.444;7.758;2023-11-21T02:52:30;0.82;;;0.40;;
79570;SDS011;69034;49.444;7.758;2023-11-21T02:56:33;3.15;;;0.75;;
79570;SDS011;69034;49.444;7.758;2023-11-21T03:00:33;1.63;;;0.70;;
79570;SDS011;69034;49.444;7.758;2023-11-21T03:04:34;2.20;;;0.50;;
79570;SDS011;69034;49.444;7.758;2023-11-21T03:08:35;1.50;;;0.70;;
79570;SDS011;69034;49.444;7.758;2023-11-21T03:12:36;2.13;;;0.52;;
79570;SDS011;69034;49.444;7.758;2023-11-21T03:16:37;2.13;;;0.77;;
79570;SDS011;69034;49.444;7.758;2023-11-21T03:20:38;1.13;;;0.43;;
79570;SDS011;69034;49.444;7.758;2023-11-21T03:24:39;1.63;;;0.60;;
79570;SDS011;69034;49.444;7.758;2023-11-21T03:28:39;1.73;;;0.80;;
79570;SDS011;69034;49.444;7.758;2023-11-21T03:32:40;2.03;;;0.75;;
79570;SDS011;69034;49.444;7.758;2023-11-21T03:36:40;1.42;;;0.65;;
79570;SDS011;69034;49.444;7.758;2023-11-21T03:40:42;2.97;;;0.77;;
79570;SDS011;69034;49.444;7.758;2023-11-21T03:44:42;1.98;;;0.70;;
79570;SDS011;69034;49.444;7.758;2023-11-21T03:48:44;3.30;;;0.90;;
79570;SDS011;69034;49.444;7.758;2023-11-21T03:52:45;1.15;;;0.43;;
79570;SDS011;69034;49.444;7.758;2023-11-21T03:56:45;1.38;;;0.65;;
79570;SDS011;69034;49.444;7.758;2023-11-21T04:00:47;3.28;;;1.05;;
79570;SDS011;69034;49.444;7.758;2023-11-21T04:04:49;2.03;;;0.55;;
79570;SDS011;69034;49.444;7.758;2023-11-21T04:08:49;2.17;;;0.80;;
79570;SDS011;69034;49.444;7.758;2023-11-21T04:12:50;2.55;;;0.80;;
79570;SDS011;69034;49.444;7.758;2023-11-21T04:16:52;1.23;;;0.60;;
79570;SDS011;69034;49.444;7.758;2023-11-21T04:20:53;3.53;;;1.05;;
79570;SDS011;69034;49.444;7.758;2023-11-21T04:24:54;2.35;;;0.88;;
79570;SDS011;69034;49.444;7.758;2023-11-21T04:28:55;2.13;;;0.82;;
79570;SDS011;69034;49.444;7.758;2023-11-21T04:32:57;2.80;;;1.10;;
79570;SDS011;69034;49.444;7.758;2023-11-21T04:36:58;4.28;;;0.68;;
79570;SDS011;69034;49.444;7.758;2023-11-21T04:41:00;2.80;;;1.10;;
79570;SDS011;69034;49.444;7.758;2023-11-21T04:45:00;1.63;;;0.63;;
79570;SDS011;69034;49.444;7.758;2023-11-21T04:49:01;2.00;;;0.88;;
79570;SDS011;69034;49.444;7.758;2023-11-21T04:53:03;2.50;;;0.98;;
79570;SDS011;69034;49.444;7.758;2023-11-21T04:57:04;3.08;;;0.95;;
79570;SDS011;69034;49.444;7.758;2023-11-21T05:01:05;1.42;;;0.60;;
79570;SDS011;69034;49.444;7.758;2023-11-21T05:05:07;2.08;;;0.70;;
79570;SDS011;69034;49.444;7.758;2023-11-21T05:09:10;2.03;;;0.80;;
79570;SDS011;69034;49.444;7.758;2023-11-21T05:13:12;1.27;;;0.82;;
79570;SDS011;69034;49.444;7.758;2023-11-21T05:17:12;1.63;;;0.50;;
79570;SDS011;69034;49.444;7.758;2023-11-21T05:21:13;1.85;;;0.85;;
79570;SDS011;69034;49.444;7.758;2023-11-21T05:25:16;1.25;;;0.50;;
79570;SDS011;69034;49.444;7.758;2023-11-21T05:33:59;2.90;;;1.20;;
79570;SDS011;69034;49.444;7.758;2023-11-21T05:38:00;2.47;;;0.80;;
79570;SDS011;69034;49.444;7.758;2023-11-21T05:42:02;1.73;;;0.70;;
79570;SDS011;69034;49.444;7.758;2023-11-21T05:46:03;1.42;;;0.68;;
79570;SDS011;69034;49.444;7.758;2023-11-21T05:50:05;0.57;;;0.35;;
79570;SDS011;69034;49.444;7.758;2023-11-21T05:54:11;2.08;;;0.80;;
79570;SDS011;69034;49.444;7.758;2023-11-21T05:58:12;2.13;;;0.50;;
79570;SDS011;69034;49.444;7.758;2023-11-21T06:02:13;1.65;;;0.60;;
79570;SDS011;69034;49.444;7.758;2023-11-21T06:06:14;1.65;;;0.60;;
79570;SDS011;69034;49.444;7.758;2023-11-21T06:10:15;1.63;;;0.73;;
79570;SDS011;69034;49.444;7.758;2023-11-21T06:14:17;0.90;;;0.32;;
79570;SDS011;69034;49.444;7.758;2023-11-21T06:18:18;1.98;;;0.60;;
79570;SDS011;69034;49.444;7.758;2023-11-21T06:22:21;1.42;;;0.55;;
79570;SDS011;69034;49.444;7.758;2023-11-21T06:26:22;1.33;;;0.50;;
79570;SDS011;69034;49.444;7.758;2023-11-21T06:30:24;1.60;;;0.70;;
79570;SDS011;69034;49.444;7.758;2023-11-21T06:34:24;4.40;;;1.58;;
79570;SDS011;69034;49.444;7.758;2023-11-21T06:38:25;3.25;;;0.80;;
79570;SDS011;69034;49.444;7.758;2023-11-21T06:42:29;0.82;;;0.43;;
79570;SDS011;69034;49.444;7.758;2023-11-21T06:46:30;2.13;;;0.57;;
79570;SDS011;69034;49.444;7.758;2023-11-21T06:50:31;1.70;;;0.60;;
79570;SDS011;69034;49.444;7.758;2023-11-21T06:54:31;0.73;;;0.30;;
79570;SDS011;69034;49.444;7.758;2023-11-21T06:58:33;2.13;;;0.70;;
79570;SDS011;69034;49.444;7.758;2023-11-21T07:02:34;1.90;;;0.75;;
79570;SDS011;69034;49.444;7.758;2023-11-21T07:06:35;1.63;;;0.63;;
79570;SDS011;69034;49.444;7.758;2023-11-21T07:10:35;1.33;;;0.60;;
79570;SDS011;69034;49.444;7.758;2023-11-21T07:14:38;1.80;;;0.70;;
79570;SDS011;69034;49.444;7.758;2023-11-21T07:18:41;0.88;;;0.45;;
79570;SDS011;69034;49.444;7.758;2023-11-21T07:22:41;1.27;;;0.55;;
79570;SDS011;69034;49.444;7.758;2023-11-21T07:26:42;2.13;;;0.90;;
79570;SDS011;69034;49.444;7.758;2023-11-21T07:30:44;3.22;;;1.10;;
79570;SDS011;69034;49.444;7.758;2023-11-21T07:34:45;2.55;;;1.02;;
79570;SDS011;69034;49.444;7.758;2023-11-21T07:38:45;1.98;;;0.80;;
79570;SDS011;69034;49.444;7.758;2023-11-21T07:42:46;2.53;;;0.75;;
79570;SDS011;69034;49.444;7.758;2023-11-21T07:46:48;2.33;;;1.13;;
79570;SDS011;69034;49.444;7.758;2023-11-21T07:50:51;2.20;;;0.90;;
79570;SDS011;69034;49.444;7.758;2023-11-21T07:54:52;4.47;;;1.48;;
79570;SDS011;69034;49.444;7.758;2023-11-21T07:58:53;1.70;;;0.75;;
79570;SDS011;69034;49.444;7.758;2023-11-21T08:02:54;2.95;;;1.33;;
79570;SDS011;69034;49.444;7.758;2023-11-21T08:06:55;2.85;;;1.15;;
79570;SDS011;69034;49.444;7.758;2023-11-21T08:10:56;3.33;;;1.60;;
79570;SDS011;69034;49.444;7.758;2023-11-21T08:14:56;2.10;;;0.50;;
79570;SDS011;69034;49.444;7.758;2023-11-21T08:18:57;3.47;;;1.30;;
79570;SDS011;69034;49.444;7.758;2023-11-21T08:22:57;5.57;;;1.20;;
79570;SDS011;69034;49.444;7.758;2023-11-21T08:26:58;3.17;;;1.20;;
79570;SDS011;69034;49.444;7.758;2023-11-21T08:31:00;2.70;;;0.80;;
79570;SDS011;69034;49.444;7.758;2023-11-21T08:35:01;5.80;;;1.33;;
79570;SDS011;69034;49.444;7.758;2023-11-21T08:39:02;2.67;;;0.85;;
79570;SDS011;69034;49.444;7.758;2023-11-21T08:43:05;3.05;;;1.00;;
79570;SDS011;69034;49.444;7.758;2023-11-21T08:47:07;3.88;;;1.35;;
79570;SDS011;69034;49.444;7.758;2023-11-21T08:51:09;2.03;;;0.95;;
79570;SDS011;69034;49.444;7.758;2023-11-21T08:55:14;3.10;;;1.15;;
79570;SDS011;69034;49.444;7.758;2023-11-21T08:59:16;7.10;;;1.48;;
79570;SDS011;69034;49.444;7.758;2023-11-21T09:03:17;2.50;;;0.82;;
79570;SDS011;69034;49.444;7.758;2023-11-21T09:07:17;2.63;;;0.88;;
79570;SDS011;69034;49.444;7.758;2023-11-21T09:11:20;1.45;;;0.70;;
79570;SDS011;69034;49.444;7.758;2023-11-21T09:15:21;3.38;;;0.90;;
79570;SDS011;69034;49.444;7.758;2023-11-21T09:19:21;3.85;;;1.45;;
79570;SDS011;69034;49.444;7.758;2023-11-21T09:23:22;6.43;;;1.48;;
79570;SDS011;69034;49.444;7.758;2023-11-21T09:27:23;2.70;;;1.00;;
79570;SDS011;69034;49.444;7.758;2023-11-21T09:31:25;17.50;;;6.30;;
79570;SDS011;69034;49.444;7.758;2023-11-21T09:35:27;2.15;;;0.80;;
79570;SDS011;69034;49.444;7.758;2023-11-21T09:39:28;2.35;;;0.80;;
79570;SDS011;69034;49.444;7.758;2023-11-21T09:43:31;2.63;;;0.88;;
79570;SDS011;69034;49.444;7.758;2023-11-21T09:47:35;2.72;;;1.02;;
79570;SDS011;69034;49.444;7.758;2023-11-21T09:51:37;3.42;;;1.10;;
79570;SDS011;69034;49.444;7.758;2023-11-21T09:55:45;2.92;;;1.20;;
79570;SDS011;69034;49.444;7.758;2023-11-21T09:59:51;2.90;;;1.02;;
79570;SDS011;69034;49.444;7.758;2023-11-21T10:03:59;3.63;;;0.55;;
79570;SDS011;69034;49.444;7.758;2023-11-21T10:08:00;2.10;;;0.70;;
79570;SDS011;69034;49.444;7.758;2023-11-21T10:12:02;2.33;;;0.63;;
79570;SDS011;69034;49.444;7.758;2023-11-21T10:16:07;2.55;;;0.88;;
79570;SDS011;69034;49.444;7.758;2023-11-21T10:20:11;1.90;;;0.85;;
79570;SDS011;69034;49.444;7.758;2023-11-21T10:24:13;1.38;;;0.55;;
79570;SDS011;69034;49.444;7.758;2023-11-21T10:28:14;1.50;;;0.65;;
79570;SDS011;69034;49.444;7.758;2023-11-21T10:32:14;2.22;;;0.52;;
79570;SDS011;69034;49.444;7.758;2023-11-21T10:36:24;2.30;;;1.00;;
79570;SDS011;69034;49.444;7.758;2023-11-21T10:40:27;2.95;;;0.93;;
79570;SDS011;69034;49.444;7.758;2023-11-21T10:44:29;3.92;;;1.48;;
79570;SDS011;69034;49.444;7.758;2023-11-21T10:48:29;2.35;;;0.88;;
79570;SDS011;69034;49.444;7.758;2023-11-21T10:52:33;1.05;;;0.50;;
79570;SDS011;69034;49.444;7.758;2023-11-21T10:56:36;1.70;;;0.80;;
79570;SDS011;69034;49.444;7.758;2023-11-21T11:00:40;0.93;;;0.40;;
79570;SDS011;69034;49.444;7.758;2023-11-21T11:04:47;2.50;;;0.90;;
79570;SDS011;69034;49.444;7.758;2023-11-21T11:08:48;3.63;;;0.85;;
79570;SDS011;69034;49.444;7.758;2023-11-21T11:12:51;4.20;;;1.20;;
79570;SDS011;69034;49.444;7.758;2023-11-21T11:16:54;3.33;;;1.20;;
79570;SDS011;69034;49.444;7.758;2023-11-21T11:21:15;2.55;;;0.93;;
79570;SDS011;69034;49.444;7.758;2023-11-21T11:38:44;2.78;;;0.90;;
79570;SDS011;69034;49.444;7.758;2023-11-21T11:42:56;3.30;;;1.02;;
79570;SDS011;69034;49.444;7.758;2023-11-21T11:47:02;2.65;;;0.93;;
79570;SDS011;69034;49.444;7.758;2023-11-21T11:55:09;2.80;;;0.90;;
79570;SDS011;69034;49.444;7.758;2023-11-21T11:59:13;1.77;;;0.70;;
79570;SDS011;69034;49.444;7.758;2023-11-21T12:03:16;6.22;;;1.35;;
79570;SDS011;69034;49.444;7.758;2023-11-21T12:07:19;2.00;;;0.63;;
79570;SDS011;69034;49.444;7.758;2023-11-21T12:11:30;2.65;;;0.68;;
79570;SDS011;69034;49.444;7.758;2023-11-21T12:15:32;2.55;;;1.02;;
79570;SDS011;69034;49.444;7.758;2023-11-21T12:19:33;1.50;;;0.57;;
79570;SDS011;69034;49.444;7.758;2023-11-21T12:23:34;4.40;;;1.05;;
79570;SDS011;69034;49.444;7.758;2023-11-21T12:27:35;2.55;;;0.98;;
79570;SDS011;69034;49.444;7.758;2023-11-21T12:31:36;2.47;;;1.05;;
79570;SDS011;69034;49.444;7.758;2023-11-21T12:35:37;2.88;;;0.85;;
79570;SDS011;69034;49.444;7.758;2023-11-21T12:39:38;3.20;;;1.27;;
79570;SDS011;69034;49.444;7.758;2023-11-21T12:43:38;2.53;;;0.80;;
79570;SDS011;69034;49.444;7.758;2023-11-21T12:47:40;4.40;;;0.98;;
79570;SDS011;69034;49.444;7.758;2023-11-21T12:51:41;3.05;;;1.13;;
79570;SDS011;69034;49.444;7.758;2023-11-21T12:55:45;3.17;;;1.10;;
79570;SDS011;69034;49.444;7.758;2023-11-21T12:59:50;3.83;;;0.75;;
79570;SDS011;69034;49.444;7.758;2023-11-21T13:03:56;2.90;;;1.02;;
79570;SDS011;69034;49.444;7.758;2023-11-21T13:08:06;5.05;;;1.02;;
79570;SDS011;69034;49.444;7.758;2023-11-21T13:12:15;2.17;;;0.73;;
79570;SDS011;69034;49.444;7.758;2023-11-21T13:16:19;1.75;;;0.88;;
79570;SDS011;69034;49.444;7.758;2023-11-21T13:20:20;5.07;;;1.30;;
79570;SDS011;69034;49.444;7.758;2023-11-21T13:24:21;2.88;;;0.98;;
79570;SDS011;69034;49.444;7.758;2023-11-21T13:28:26;2.85;;;1.02;;
79570;SDS011;69034;49.444;7.758;2023-11-21T13:32:34;3.05;;;1.10;;
79570;SDS011;69034;49.444;7.758;2023-11-21T13:36:35;2.17;;;0.93;;
79570;SDS011;69034;49.444;7.758;2023-11-21T13:40:47;3.42;;;1.33;;
79570;SDS011;69034;49.444;7.758;2023-11-21T13:44:56;4.22;;;1.05;;
79570;SDS011;69034;49.444;7.758;2023-11-21T13:49:05;4.85;;;1.27;;
79570;SDS011;69034;49.444;7.758;2023-11-21T13:53:10;3.47;;;1.17;;
79570;SDS011;69034;49.444;7.758;2023-11-21T14:01:27;2.90;;;0.90;;
79570;SDS011;69034;49.444;7.758;2023-11-21T14:05:30;2.65;;;1.20;;
79570;SDS011;69034;49.444;7.758;2023-11-21T14:09:33;3.70;;;1.27;;
79570;SDS011;69034;49.444;7.758;2023-11-21T14:13:43;3.10;;;1.20;;
79570;SDS011;69034;49.444;7.758;2023-11-21T14:17:47;3.97;;;1.05;;
79570;SDS011;69034;49.444;7.758;2023-11-21T14:21:49;3.20;;;1.20;;
79570;SDS011;69034;49.444;7.758;2023-11-21T14:25:50;4.85;;;2.28;;
79570;SDS011;69034;49.444;7.758;2023-11-21T14:29:54;6.70;;;1.63;;
79570;SDS011;69034;49.444;7.758;2023-11-21T14:33:57;6.78;;;2.00;;
79570;SDS011;69034;49.444;7.758;2023-11-21T14:38:01;5.80;;;1.92;;
79570;SDS011;69034;49.444;7.758;2023-11-21T14:42:04;3.28;;;1.35;;
79570;SDS011;69034;49.444;7.758;2023-11-21T14:46:11;6.32;;;1.60;;
79570;SDS011;69034;49.444;7.758;2023-11-21T14:50:16;4.13;;;1.80;;
79570;SDS011;69034;49.444;7.758;2023-11-21T14:54:39;5.82;;;2.55;;
79570;SDS011;69034;49.444;7.758;2023-11-21T14:58:40;4.80;;;1.73;;
79570;SDS011;69034;49.444;7.758;2023-11-21T15:02:41;4.50;;;1.80;;
79570;SDS011;69034;49.444;7.758;2023-11-21T15:06:50;4.25;;;1.85;;
79570;SDS011;69034;49.444;7.758;2023-11-21T15:10:53;3.33;;;1.45;;
79570;SDS011;69034;49.444;7.758;2023-11-21T15:14:54;5.28;;;2.05;;
79570;SDS011;69034;49.444;7.758;2023-11-21T15:18:57;5.15;;;2.00;;
79570;SDS011;69034;49.444;7.758;2023-11-21T15:22:58;5.93;;;2.10;;
79570;SDS011;69034;49.444;7.758;2023-11-21T15:26:58;6.25;;;1.83;;
79570;SDS011;69034;49.444;7.758;2023-11-21T15:30:59;7.35;;;2.22;;
79570;SDS011;69034;49.444;7.758;2023-11-21T15:35:01;4.47;;;1.77;;
79570;SDS011;69034;49.444;7.758;2023-11-21T15:39:01;5.65;;;2.42;;
79570;SDS011;69034;49.444;7.758;2023-11-21T15:43:02;5.10;;;2.17;;
79570;SDS011;69034;49.444;7.758;2023-11-21T15:47:07;4.38;;;1.90;;
79570;SDS011;69034;49.444;7.758;2023-11-21T15:51:08;5.50;;;2.05;;
79570;SDS011;69034;49.444;7.758;2023-11-21T15:55:12;5.10;;;1.92;;
79570;SDS011;69034;49.444;7.758;2023-11-21T15:59:13;5.65;;;1.80;;
79570;SDS011;69034;49.444;7.758;2023-11-21T16:03:14;5.50;;;1.63;;
79570;SDS011;69034;49.444;7.758;2023-11-21T16:07:16;3.92;;;1.70;;
79570;SDS011;69034;49.444;7.758;2023-11-21T16:11:18;7.07;;;2.50;;
79570;SDS011;69034;49.444;7.758;2023-11-21T16:15:18;8.50;;;2.35;;
79570;SDS011;69034;49.444;7.758;2023-11-21T16:19:20;7.55;;;3.13;;
79570;SDS011;69034;49.444;7.758;2023-11-21T16:23:20;4.85;;;2.15;;
79570;SDS011;69034;49.444;7.758;2023-11-21T16:27:21;7.07;;;2.58;;
79570;SDS011;69034;49.444;7.758;2023-11-21T16:31:22;4.55;;;2.10;;
79570;SDS011;69034;49.444;7.758;2023-11-21T16:35:23;6.38;;;2.90;;
79570;SDS011;69034;49.444;7.758;2023-11-21T16:39:24;4.25;;;1.45;;
79570;SDS011;69034;49.444;7.758;2023-11-21T16:43:24;8.32;;;3.00;;
79570;SDS011;69034;49.444;7.758;2023-11-21T16:47:25;5.72;;;2.20;;
79570;SDS011;69034;49.444;7.758;2023-11-21T16:51:26;7.22;;;3.08;;
79570;SDS011;69034;49.444;7.758;2023-11-21T16:55:27;8.18;;;3.22;;
79570;SDS011;69034;49.444;7.758;2023-11-21T16:59:28;7.72;;;3.17;;
79570;SDS011;69034;49.444;7.758;2023-11-21T17:03:29;4.80;;;2.30;;
79570;SDS011;69034;49.444;7.758;2023-11-21T17:07:31;10.60;;;3.10;;
79570;SDS011;69034;49.444;7.758;2023-11-21T17:11:32;6.80;;;2.75;;
79570;SDS011;69034;49.444;7.758;2023-11-21T17:15:33;5.03;;;2.42;;
79570;SDS011;69034;49.444;7.758;2023-11-21T17:19:34;7.53;;;2.72;;
79570;SDS011;69034;49.444;7.758;2023-11-21T17:23:36;7.10;;;2.42;;
79570;SDS011;69034;49.444;7.758;2023-11-21T17:27:37;9.95;;;3.80;;
79570;SDS011;69034;49.444;7.758;2023-11-21T17:31:38;4.80;;;1.95;;
79570;SDS011;69034;49.444;7.758;2023-11-21T17:35:40;6.30;;;2.72;;
79570;SDS011;69034;49.444;7.758;2023-11-21T17:39:44;8.80;;;2.90;;
79570;SDS011;69034;49.444;7.758;2023-11-21T17:43:45;6.65;;;2.67;;
79570;SDS011;69034;49.444;7.758;2023-11-21T17:47:46;9.15;;;3.30;;
79570;SDS011;69034;49.444;7.758;2023-11-21T17:51:47;5.93;;;2.67;;
79570;SDS011;69034;49.444;7.758;2023-11-21T17:55:47;6.50;;;2.78;;
79570;SDS011;69034;49.444;7.758;2023-11-21T17:59:48;8.05;;;2.65;;
79570;SDS011;69034;49.444;7.758;2023-11-21T18:03:50;7.47;;;3.35;;
79570;SDS011;69034;49.444;7.758;2023-11-21T18:08:12;7.15;;;2.75;;
79570;SDS011;69034;49.444;7.758;2023-11-21T18:12:14;8.32;;;3.25;;
79570;SDS011;69034;49.444;7.758;2023-11-21T18:16:15;5.32;;;2.85;;
79570;SDS011;69034;49.444;7.758;2023-11-21T18:20:16;6.85;;;3.30;;
79570;SDS011;69034;49.444;7.758;2023-11-21T18:24:19;9.60;;;3.28;;
79570;SDS011;69034;49.444;7.758;2023-11-21T18:28:20;9.45;;;3.13;;
79570;SDS011;69034;49.444;7.758;2023-11-21T18:32:20;7.00;;;3.40;;
79570;SDS011;69034;49.444;7.758;2023-11-21T18:36:23;6.63;;;2.67;;
79570;SDS011;69034;49.444;7.758;2023-11-21T18:40:23;10.27;;;4.15;;
79570;SDS011;69034;49.444;7.758;2023-11-21T18:44:25;5.70;;;2.90;;
79570;SDS011;69034;49.444;7.758;2023-11-21T18:48:27;11.27;;;3.97;;
79570;SDS011;69034;49.444;7.758;2023-11-21T18:52:28;6.28;;;2.50;;
79570;SDS011;69034;49.444;7.758;2023-11-21T19:01:01;5.35;;;2.65;;
79570;SDS011;69034;49.444;7.758;2023-11-21T19:05:03;6.25;;;2.50;;
79570;SDS011;69034;49.444;7.758;2023-11-21T19:09:05;7.35;;;3.65;;
79570;SDS011;69034;49.444;7.758;2023-11-21T19:13:09;6.10;;;2.67;;
79570;SDS011;69034;49.444;7.758;2023-11-21T19:17:11;7.22;;;2.20;;
79570;SDS011;69034;49.444;7.758;2023-11-21T19:21:14;5.90;;;2.38;;
79570;SDS011;69034;49.444;7.758;2023-11-21T19:25:16;5.65;;;2.45;;
79570;SDS011;69034;49.444;7.758;2023-11-21T19:29:18;10.02;;;2.78;;
79570;SDS011;69034;49.444;7.758;2023-11-21T19:33:19;7.20;;;2.80;;
79570;SDS011;69034;49.444;7.758;2023-11-21T19:37:20;6.30;;;2.58;;
79570;SDS011;69034;49.444;7.758;2023-11-21T19:41:21;9.55;;;4.78;;
79570;SDS011;69034;49.444;7.758;2023-11-21T19:45:21;9.68;;;3.65;;
79570;SDS011;69034;49.444;7.758;2023-11-21T19:49:23;8.07;;;2.70;;
79570;SDS011;69034;49.444;7.758;2023-11-21T19:53:23;7.30;;;2.70;;
79570;SDS011;69034;49.444;7.758;2023-11-21T19:57:24;8.55;;;3.53;;
79570;SDS011;69034;49.444;7.758;2023-11-21T20:01:24;13.65;;;5.43;;
79570;SDS011;69034;49.444;7.758;2023-11-21T20:05:26;7.10;;;2.88;;
79570;SDS011;69034;49.444;7.758;2023-11-21T20:09:28;7.13;;;3.35;;
79570;SDS011;69034;49.444;7.758;2023-11-21T20:13:31;6.80;;;2.53;;
79570;SDS011;69034;49.444;7.758;2023-11-21T20:17:33;11.73;;;4.47;;
79570;SDS011;69034;49.444;7.758;2023-11-21T20:21:36;7.10;;;3.10;;
79570;SDS011;69034;49.444;7.758;2023-11-21T20:25:38;9.30;;;3.65;;
79570;SDS011;69034;49.444;7.758;2023-11-21T20:29:39;6.88;;;2.63;;
79570;SDS011;69034;49.444;7.758;2023-11-21T20:33:42;9.02;;;3.45;;
79570;SDS011;69034;49.444;7.758;2023-11-21T20:37:43;9.00;;;4.88;;
79570;SDS011;69034;49.444;7.758;2023-11-21T20:41:43;9.98;;;4.75;;
79570;SDS011;69034;49.444;7.758;2023-11-21T20:45:44;6.70;;;2.63;;
79570;SDS011;69034;49.444;7.758;2023-11-21T20:49:45;9.23;;;3.05;;
79570;SDS011;69034;49.444;7.758;2023-11-21T20:53:47;8.40;;;3.78;;
79570;SDS011;69034;49.444;7.758;2023-11-21T20:57:49;9.75;;;3.65;;
79570;SDS011;69034;49.444;7.758;2023-11-21T21:01:50;8.73;;;3.28;;
79570;SDS011;69034;49.444;7.758;2023-11-21T21:05:53;6.90;;;3.25;;
79570;SDS011;69034;49.444;7.758;2023-11-21T21:09:54;9.60;;;3.15;;
79570;SDS011;69034;49.444;7.758;2023-11-21T21:13:58;8.77;;;3.33;;
79570;SDS011;69034;49.444;7.758;2023-11-21T21:18:41;11.60;;;4.75;;
79570;SDS011;69034;49.444;7.758;2023-11-21T21:22:42;8.27;;;4.25;;
79570;SDS011;69034;49.444;7.758;2023-11-21T21:26:44;10.77;;;5.43;;
79570;SDS011;69034;49.444;7.758;2023-11-21T21:30:44;12.43;;;5.80;;
79570;SDS011;69034;49.444;7.758;2023-11-21T21:34:52;18.45;;;6.97;;
79570;SDS011;69034;49.444;7.758;2023-11-21T21:38:53;8.52;;;3.67;;
79570;SDS011;69034;49.444;7.758;2023-11-21T21:42:56;10.30;;;4.47;;
79570;SDS011;69034;49.444;7.758;2023-11-21T21:47:03;9.60;;;3.75;;
79570;SDS011;69034;49.444;7.758;2023-11-21T21:51:05;9.10;;;4.22;;
79570;SDS011;69034;49.444;7.758;2023-11-21T21:59:21;4.88;;;1.60;;
79570;SDS011;69034;49.444;7.758;2023-11-21T22:03:24;1.92;;;0.57;;
79570;SDS011;69034;49.444;7.758;2023-11-21T22:07:28;5.32;;;1.70;;
79570;SDS011;69034;49.444;7.758;2023-11-21T22:11:30;4.22;;;2.40;;
79570;SDS011;69034;49.444;7.758;2023-11-21T22:15:34;2.58;;;1.23;;
79570;SDS011;69034;49.444;7.758;2023-11-21T22:19:42;2.28;;;0.98;;
79570;SDS011;69034;49.444;7.758;2023-11-21T22:23:43;2.53;;;1.15;;
79570;SDS011;69034;49.444;7.758;2023-11-21T22:27:44;4.28;;;1.60;;
79570;SDS011;69034;49.444;7.758;2023-11-21T22:31:44;2.53;;;1.10;;
79570;SDS011;69034;49.444;7.758;2023-11-21T22:35:48;3.90;;;2.03;;
79570;SDS011;69034;49.444;7.758;2023-11-21T22:39:51;4.60;;;1.63;;
79570;SDS011;69034;49.444;7.758;2023-11-21T22:43:53;5.13;;;1.80;;
79570;SDS011;69034;49.444;7.758;2023-11-21T22:47:54;3.63;;;1.60;;
79570;SDS011;69034;49.444;7.758;2023-11-21T22:51:55;5.57;;;2.95;;
79570;SDS011;69034;49.444;7.758;2023-11-21T22:55:57;3.97;;;1.85;;
79570;SDS011;69034;49.444;7.758;2023-11-21T22:59:59;6.63;;;2.88;;
79570;SDS011;69034;49.444;7.758;2023-11-21T23:04:01;3.72;;;1.65;;
79570;SDS011;69034;49.444;7.758;2023-11-21T23:08:23;4.18;;;2.00;;
79570;SDS011;69034;49.444;7.758;2023-11-21T23:12:25;5.45;;;2.15;;
79570;SDS011;69034;49.444;7.758;2023-11-21T23:16:27;3.45;;;1.85;;
79570;SDS011;69034;49.444;7.758;2023-11-21T23:20:28;6.18;;;2.00;;
79570;SDS011;69034;49.444;7.758;2023-11-21T23:24:31;3.03;;;1.40;;
79570;SDS011;69034;49.444;7.758;2023-11-21T23:28:33;4.97;;;2.00;;
79570;SDS011;69034;49.444;7.758;2023-11-21T23:32:33;4.85;;;1.40;;
79570;SDS011;69034;49.444;7.758;2023-11-21T23:36:35;2.95;;;1.42;;
79570;SDS011;69034;49.444;7.758;2023-11-21T23:40:38;7.25;;;2.60;;
79570;SDS011;69034;49.444;7.758;2023-11-21T23:44:39;2.42;;;1.15;;
79570;SDS011;69034;49.444;7.758;2023-11-21T23:48:47;4.25;;;1.83;;
79570;SDS011;69034;49.444;7.758;2023-11-21T23:52:48;4.68;;;1.83;;
79570;SDS011;69034;49.444;7.758;2023-11-21T23:56:50;2.72;;;1.45;;
